sensor_id;sensor_type;location;lat;lon;timestamp;temperature;humidity
38604;DHT22;24924;50.054;8.790;2024-01-07T12:47:33;15.30;99.90
38604;DHT22;24924;50.054;8.790;2024-01-07T12:49:59;17.60;99.90
38604;DHT22;24924;50.054;8.790;2024-01-07T12:52:25;18.70;99.90
38604;DHT22;24924;50.054;8.790;2024-01-07T12:54:53;19.20;99.90
38604;DHT22;24924;50.054;8.790;2024-01-07T12:57:20;19.50;99.90
38604;DHT22;24924;50.054;8.790;2024-01-07T13:01:16;19.60;99.90
38604;DHT22;24924;50.054;8.790;2024-01-07T13:11:06;19.00;92.50
38604;DHT22;24924;50.054;8.790;2024-01-07T13:13:34;13.40;96.10
38604;DHT22;24924;50.054;8.790;2024-01-07T13:16:00;10.20;98.50
38604;DHT22;24924;50.054;8.790;2024-01-07T13:19:09;8.00;99.90
38604;DHT22;24924;50.054;8.790;2024-01-07T13:22:03;5.80;99.90
38604;DHT22;24924;50.054;8.790;2024-01-07T13:24:29;5.20;99.90
38604;DHT22;24924;50.054;8.790;2024-01-07T13:28:30;10.20;99.90
38604;DHT22;24924;50.054;8.790;2024-01-07T13:30:57;15.40;99.90
38604;DHT22;24924;50.054;8.790;2024-01-07T13:33:23;17.80;99.90
38604;DHT22;24924;50.054;8.790;2024-01-07T13:35:49;18.90;99.90
38604;DHT22;24924;50.054;8.790;2024-01-07T13:38:15;19.40;99.90
38604;DHT22;24924;50.054;8.790;2024-01-07T13:40:41;19.70;99.90
38604;DHT22;24924;50.054;8.790;2024-01-07T13:43:06;19.70;99.90
38604;DHT22;24924;50.054;8.790;2024-01-07T13:45:32;19.70;99.90
38604;DHT22;24924;50.054;8.790;2024-01-07T13:50:54;22.20;99.90
38604;DHT22;24924;50.054;8.790;2024-01-07T13:56:08;20.60;99.90
38604;DHT22;24924;50.054;8.790;2024-01-07T14:03:28;21.70;99.90
38604;DHT22;24924;50.054;8.790;2024-01-07T14:05:59;21.50;99.90
38604;DHT22;24924;50.054;8.790;2024-01-07T14:08:26;21.00;99.90
38604;DHT22;24924;50.054;8.790;2024-01-07T14:13:14;20.00;91.40
38604;DHT22;24924;50.054;8.790;2024-01-07T14:16:06;13.70;92.80
38604;DHT22;24924;50.054;8.790;2024-01-07T14:18:33;10.10;95.50
38604;DHT22;24924;50.054;8.790;2024-01-07T14:20:58;7.60;99.00
38604;DHT22;24924;50.054;8.790;2024-01-07T14:23:24;5.80;99.90
38604;DHT22;24924;50.054;8.790;2024-01-07T14:25:49;4.70;99.90
38604;DHT22;24924;50.054;8.790;2024-01-07T14:28:15;4.10;99.90
38604;DHT22;24924;50.054;8.790;2024-01-07T14:30:41;3.60;99.90
38604;DHT22;24924;50.054;8.790;2024-01-07T14:33:07;3.40;99.90
38604;DHT22;24924;50.054;8.790;2024-01-07T14:35:33;3.00;99.90
38604;DHT22;24924;50.054;8.790;2024-01-07T14:37:59;2.90;99.90
38604;DHT22;24924;50.054;8.790;2024-01-07T14:40:25;2.60;99.90
38604;DHT22;24924;50.054;8.790;2024-01-07T14:42:51;2.50;99.90
38604;DHT22;24924;50.054;8.790;2024-01-07T14:45:26;2.50;99.90
38604;DHT22;24924;50.054;8.790;2024-01-07T14:47:52;2.40;99.90
38604;DHT22;24924;50.054;8.790;2024-01-07T14:50:18;2.40;99.90
38604;DHT22;24924;50.054;8.790;2024-01-07T14:52:44;2.40;99.90
38604;DHT22;24924;50.054;8.790;2024-01-07T14:55:10;2.30;99.90
38604;DHT22;24924;50.054;8.790;2024-01-07T14:57:36;2.30;99.90
38604;DHT22;24924;50.054;8.790;2024-01-07T15:00:02;2.30;99.90
38604;DHT22;24924;50.054;8.790;2024-01-07T15:02:30;2.20;99.90
38604;DHT22;24924;50.054;8.790;2024-01-07T15:04:56;2.30;99.90
38604;DHT22;24924;50.054;8.790;2024-01-07T15:07:23;2.20;99.90
38604;DHT22;24924;50.054;8.790;2024-01-07T15:09:49;2.10;99.90
38604;DHT22;24924;50.054;8.790;2024-01-07T15:12:15;2.10;99.90
38604;DHT22;24924;50.054;8.790;2024-01-07T15:14:41;2.00;99.90
38604;DHT22;24924;50.054;8.790;2024-01-07T15:17:06;1.80;99.90
38604;DHT22;24924;50.054;8.790;2024-01-07T15:19:32;1.90;99.90
38604;DHT22;24924;50.054;8.790;2024-01-07T15:21:58;1.90;99.90
38604;DHT22;24924;50.054;8.790;2024-01-07T15:24:24;1.90;99.90
38604;DHT22;24924;50.054;8.790;2024-01-07T15:26:50;1.80;99.90
38604;DHT22;24924;50.054;8.790;2024-01-07T15:29:15;1.80;99.90
38604;DHT22;24924;50.054;8.790;2024-01-07T15:31:41;1.60;99.90
38604;DHT22;24924;50.054;8.790;2024-01-07T15:34:07;1.50;99.90
38604;DHT22;24924;50.054;8.790;2024-01-07T15:36:33;1.50;99.90
38604;DHT22;24924;50.054;8.790;2024-01-07T15:39:03;1.50;99.90
38604;DHT22;24924;50.054;8.790;2024-01-07T15:41:28;1.40;99.90
38604;DHT22;24924;50.054;8.790;2024-01-07T15:43:55;1.40;99.90
38604;DHT22;24924;50.054;8.790;2024-01-07T15:46:21;1.40;99.90
38604;DHT22;24924;50.054;8.790;2024-01-07T15:48:47;1.40;99.90
38604;DHT22;24924;50.054;8.790;2024-01-07T15:51:13;1.50;99.90
38604;DHT22;24924;50.054;8.790;2024-01-07T15:53:40;1.40;99.90
38604;DHT22;24924;50.054;8.790;2024-01-07T15:56:05;1.30;99.90
38604;DHT22;24924;50.054;8.790;2024-01-07T15:58:32;1.30;99.90
38604;DHT22;24924;50.054;8.790;2024-01-07T16:00:59;1.30;99.90
38604;DHT22;24924;50.054;8.790;2024-01-07T16:03:26;1.20;99.90
38604;DHT22;24924;50.054;8.790;2024-01-07T16:05:52;1.10;99.90
38604;DHT22;24924;50.054;8.790;2024-01-07T16:08:19;1.10;99.90
38604;DHT22;24924;50.054;8.790;2024-01-07T16:10:46;1.20;99.90
38604;DHT22;24924;50.054;8.790;2024-01-07T16:13:11;1.20;99.90
38604;DHT22;24924;50.054;8.790;2024-01-07T16:15:37;1.10;99.90
38604;DHT22;24924;50.054;8.790;2024-01-07T16:18:03;1.00;99.90
38604;DHT22;24924;50.054;8.790;2024-01-07T16:20:29;1.00;99.90
38604;DHT22;24924;50.054;8.790;2024-01-07T16:22:55;1.00;99.90
38604;DHT22;24924;50.054;8.790;2024-01-07T16:25:21;1.00;99.90
38604;DHT22;24924;50.054;8.790;2024-01-07T16:27:47;1.00;99.90
38604;DHT22;24924;50.054;8.790;2024-01-07T16:30:14;1.00;99.90
38604;DHT22;24924;50.054;8.790;2024-01-07T16:32:40;1.00;99.90
38604;DHT22;24924;50.054;8.790;2024-01-07T16:35:06;0.90;99.90
38604;DHT22;24924;50.054;8.790;2024-01-07T16:37:32;0.90;99.90
38604;DHT22;24924;50.054;8.790;2024-01-07T16:39:58;0.90;99.90
38604;DHT22;24924;50.054;8.790;2024-01-07T16:42:23;0.90;99.90
38604;DHT22;24924;50.054;8.790;2024-01-07T16:44:49;0.80;99.90
38604;DHT22;24924;50.054;8.790;2024-01-07T16:47:16;0.90;99.90
38604;DHT22;24924;50.054;8.790;2024-01-07T16:49:42;0.80;99.90
38604;DHT22;24924;50.054;8.790;2024-01-07T16:52:07;0.80;99.90
38604;DHT22;24924;50.054;8.790;2024-01-07T16:54:33;0.80;99.90
38604;DHT22;24924;50.054;8.790;2024-01-07T16:57:00;0.70;99.90
38604;DHT22;24924;50.054;8.790;2024-01-07T16:59:26;0.70;99.90
38604;DHT22;24924;50.054;8.790;2024-01-07T17:01:52;0.60;99.90
38604;DHT22;24924;50.054;8.790;2024-01-07T17:04:17;0.60;99.90
38604;DHT22;24924;50.054;8.790;2024-01-07T17:06:46;0.60;99.90
38604;DHT22;24924;50.054;8.790;2024-01-07T17:09:12;0.60;99.90
38604;DHT22;24924;50.054;8.790;2024-01-07T17:11:38;0.60;99.90
38604;DHT22;24924;50.054;8.790;2024-01-07T17:14:04;0.60;99.90
38604;DHT22;24924;50.054;8.790;2024-01-07T17:16:29;0.50;99.90
38604;DHT22;24924;50.054;8.790;2024-01-07T17:18:56;0.50;99.90
38604;DHT22;24924;50.054;8.790;2024-01-07T17:21:21;0.60;99.90
38604;DHT22;24924;50.054;8.790;2024-01-07T17:23:47;0.40;99.90
38604;DHT22;24924;50.054;8.790;2024-01-07T17:26:19;0.40;99.90
38604;DHT22;24924;50.054;8.790;2024-01-07T17:28:46;0.40;99.90
38604;DHT22;24924;50.054;8.790;2024-01-07T17:31:12;0.40;99.90
38604;DHT22;24924;50.054;8.790;2024-01-07T17:33:39;0.50;99.90
38604;DHT22;24924;50.054;8.790;2024-01-07T17:36:05;0.50;99.90
38604;DHT22;24924;50.054;8.790;2024-01-07T17:48:02;0.40;99.90
38604;DHT22;24924;50.054;8.790;2024-01-07T17:54:16;0.50;99.90
38604;DHT22;24924;50.054;8.790;2024-01-07T17:56:41;0.50;99.90
38604;DHT22;24924;50.054;8.790;2024-01-07T17:59:09;0.60;99.90
38604;DHT22;24924;50.054;8.790;2024-01-07T18:01:36;0.60;99.90
38604;DHT22;24924;50.054;8.790;2024-01-07T18:04:02;0.60;99.90
38604;DHT22;24924;50.054;8.790;2024-01-07T18:06:29;0.60;99.90
38604;DHT22;24924;50.054;8.790;2024-01-07T18:08:55;0.40;99.90
38604;DHT22;24924;50.054;8.790;2024-01-07T18:11:21;0.50;99.90
38604;DHT22;24924;50.054;8.790;2024-01-07T18:13:47;0.50;99.90
38604;DHT22;24924;50.054;8.790;2024-01-07T18:16:13;0.50;99.90
38604;DHT22;24924;50.054;8.790;2024-01-07T18:18:39;0.40;99.90
38604;DHT22;24924;50.054;8.790;2024-01-07T18:21:05;0.40;99.90
38604;DHT22;24924;50.054;8.790;2024-01-07T18:23:31;0.50;99.90
38604;DHT22;24924;50.054;8.790;2024-01-07T18:25:57;0.50;99.90
38604;DHT22;24924;50.054;8.790;2024-01-07T18:28:23;0.40;99.90
38604;DHT22;24924;50.054;8.790;2024-01-07T18:30:49;0.40;99.90
38604;DHT22;24924;50.054;8.790;2024-01-07T18:33:14;0.40;99.90
38604;DHT22;24924;50.054;8.790;2024-01-07T18:35:40;0.40;99.90
38604;DHT22;24924;50.054;8.790;2024-01-07T18:38:07;0.50;99.90
38604;DHT22;24924;50.054;8.790;2024-01-07T18:40:33;0.50;99.90
38604;DHT22;24924;50.054;8.790;2024-01-07T18:42:59;0.50;99.90
38604;DHT22;24924;50.054;8.790;2024-01-07T18:45:29;0.50;99.90
38604;DHT22;24924;50.054;8.790;2024-01-07T18:47:54;0.60;99.90
38604;DHT22;24924;50.054;8.790;2024-01-07T18:50:20;0.60;99.90
38604;DHT22;24924;50.054;8.790;2024-01-07T18:52:47;0.50;99.90
38604;DHT22;24924;50.054;8.790;2024-01-07T18:55:13;0.50;99.90
38604;DHT22;24924;50.054;8.790;2024-01-07T18:57:38;0.60;99.90
38604;DHT22;24924;50.054;8.790;2024-01-07T19:00:08;0.60;99.90
38604;DHT22;24924;50.054;8.790;2024-01-07T19:02:34;0.70;99.90
38604;DHT22;24924;50.054;8.790;2024-01-07T19:05:00;0.60;99.90
38604;DHT22;24924;50.054;8.790;2024-01-07T19:07:26;0.70;99.90
38604;DHT22;24924;50.054;8.790;2024-01-07T19:09:52;0.70;99.90
38604;DHT22;24924;50.054;8.790;2024-01-07T19:12:18;0.70;99.90
38604;DHT22;24924;50.054;8.790;2024-01-07T19:14:44;0.70;99.90
38604;DHT22;24924;50.054;8.790;2024-01-07T19:17:10;0.70;99.90
38604;DHT22;24924;50.054;8.790;2024-01-07T19:19:37;0.80;99.90
38604;DHT22;24924;50.054;8.790;2024-01-07T19:22:03;0.70;99.90
38604;DHT22;24924;50.054;8.790;2024-01-07T19:24:29;0.60;99.90
38604;DHT22;24924;50.054;8.790;2024-01-07T19:26:54;0.70;99.90
38604;DHT22;24924;50.054;8.790;2024-01-07T19:29:20;0.70;99.90
38604;DHT22;24924;50.054;8.790;2024-01-07T19:31:46;0.70;99.90
38604;DHT22;24924;50.054;8.790;2024-01-07T19:34:12;0.70;99.90
38604;DHT22;24924;50.054;8.790;2024-01-07T19:36:41;0.70;99.90
38604;DHT22;24924;50.054;8.790;2024-01-07T19:39:07;0.70;99.90
38604;DHT22;24924;50.054;8.790;2024-01-07T19:41:34;0.70;99.90
38604;DHT22;24924;50.054;8.790;2024-01-07T19:44:02;0.70;99.90
38604;DHT22;24924;50.054;8.790;2024-01-07T19:46:29;0.70;99.90
38604;DHT22;24924;50.054;8.790;2024-01-07T19:48:59;0.80;99.90
38604;DHT22;24924;50.054;8.790;2024-01-07T19:51:28;0.80;99.90
38604;DHT22;24924;50.054;8.790;2024-01-07T19:53:54;0.80;99.90
38604;DHT22;24924;50.054;8.790;2024-01-07T19:56:20;0.90;99.90
38604;DHT22;24924;50.054;8.790;2024-01-07T19:58:47;0.90;99.90
38604;DHT22;24924;50.054;8.790;2024-01-07T20:01:13;0.80;99.90
38604;DHT22;24924;50.054;8.790;2024-01-07T20:03:39;0.80;99.90
38604;DHT22;24924;50.054;8.790;2024-01-07T20:06:07;0.80;99.90
38604;DHT22;24924;50.054;8.790;2024-01-07T20:08:47;0.80;99.90
38604;DHT22;24924;50.054;8.790;2024-01-07T20:11:21;0.90;99.90
38604;DHT22;24924;50.054;8.790;2024-01-07T20:13:50;0.80;99.90
38604;DHT22;24924;50.054;8.790;2024-01-07T20:16:17;0.90;99.90
38604;DHT22;24924;50.054;8.790;2024-01-07T20:18:44;0.80;99.90
38604;DHT22;24924;50.054;8.790;2024-01-07T20:21:20;0.80;99.90
38604;DHT22;24924;50.054;8.790;2024-01-07T20:23:50;0.90;99.90
38604;DHT22;24924;50.054;8.790;2024-01-07T20:26:17;1.00;99.90
38604;DHT22;24924;50.054;8.790;2024-01-07T20:28:43;1.00;99.90
38604;DHT22;24924;50.054;8.790;2024-01-07T20:31:09;1.00;99.90
38604;DHT22;24924;50.054;8.790;2024-01-07T20:33:38;0.90;99.90
38604;DHT22;24924;50.054;8.790;2024-01-07T20:36:05;0.90;99.90
38604;DHT22;24924;50.054;8.790;2024-01-07T20:38:34;0.90;99.90
38604;DHT22;24924;50.054;8.790;2024-01-07T20:41:00;1.00;99.90
38604;DHT22;24924;50.054;8.790;2024-01-07T20:43:26;0.90;99.90
38604;DHT22;24924;50.054;8.790;2024-01-07T20:45:52;1.00;99.90
38604;DHT22;24924;50.054;8.790;2024-01-07T20:48:18;1.00;99.90
38604;DHT22;24924;50.054;8.790;2024-01-07T20:50:44;1.00;99.90
38604;DHT22;24924;50.054;8.790;2024-01-07T20:53:10;1.10;99.90
38604;DHT22;24924;50.054;8.790;2024-01-07T20:55:36;1.10;99.90
38604;DHT22;24924;50.054;8.790;2024-01-07T20:58:02;1.10;99.90
38604;DHT22;24924;50.054;8.790;2024-01-07T21:00:28;1.00;99.90
38604;DHT22;24924;50.054;8.790;2024-01-07T21:02:54;1.00;99.90
38604;DHT22;24924;50.054;8.790;2024-01-07T21:05:20;0.90;99.90
38604;DHT22;24924;50.054;8.790;2024-01-07T21:07:47;1.10;99.90
38604;DHT22;24924;50.054;8.790;2024-01-07T21:10:16;1.10;99.90
38604;DHT22;24924;50.054;8.790;2024-01-07T21:12:42;1.10;99.90
38604;DHT22;24924;50.054;8.790;2024-01-07T21:15:09;1.00;99.90
38604;DHT22;24924;50.054;8.790;2024-01-07T21:17:36;1.00;99.90
38604;DHT22;24924;50.054;8.790;2024-01-07T21:20:08;1.10;99.90
38604;DHT22;24924;50.054;8.790;2024-01-07T21:22:35;1.10;99.90
38604;DHT22;24924;50.054;8.790;2024-01-07T21:25:02;1.10;99.90
38604;DHT22;24924;50.054;8.790;2024-01-07T21:27:28;1.10;99.90
38604;DHT22;24924;50.054;8.790;2024-01-07T21:29:54;1.10;99.90
38604;DHT22;24924;50.054;8.790;2024-01-07T21:32:20;1.10;99.90
38604;DHT22;24924;50.054;8.790;2024-01-07T21:34:46;1.10;99.90
38604;DHT22;24924;50.054;8.790;2024-01-07T21:37:12;1.10;99.90
38604;DHT22;24924;50.054;8.790;2024-01-07T21:39:38;1.10;99.90
38604;DHT22;24924;50.054;8.790;2024-01-07T21:42:06;1.00;99.90
38604;DHT22;24924;50.054;8.790;2024-01-07T21:44:32;1.00;99.90
38604;DHT22;24924;50.054;8.790;2024-01-07T21:46:58;1.00;99.90
38604;DHT22;24924;50.054;8.790;2024-01-07T21:49:24;1.00;99.90
38604;DHT22;24924;50.054;8.790;2024-01-07T21:51:50;1.00;99.90
38604;DHT22;24924;50.054;8.790;2024-01-07T21:54:16;1.00;99.90
38604;DHT22;24924;50.054;8.790;2024-01-07T21:56:42;1.00;99.90
38604;DHT22;24924;50.054;8.790;2024-01-07T21:59:08;1.00;99.90
38604;DHT22;24924;50.054;8.790;2024-01-07T22:01:34;1.00;99.90
38604;DHT22;24924;50.054;8.790;2024-01-07T22:03:59;1.10;99.90
38604;DHT22;24924;50.054;8.790;2024-01-07T22:06:25;1.00;99.90
38604;DHT22;24924;50.054;8.790;2024-01-07T22:08:51;1.10;99.90
38604;DHT22;24924;50.054;8.790;2024-01-07T22:11:17;1.10;99.90
38604;DHT22;24924;50.054;8.790;2024-01-07T22:13:43;1.10;99.90
38604;DHT22;24924;50.054;8.790;2024-01-07T22:16:10;1.10;99.90
38604;DHT22;24924;50.054;8.790;2024-01-07T22:18:37;1.10;99.90
38604;DHT22;24924;50.054;8.790;2024-01-07T22:21:04;1.20;99.90
38604;DHT22;24924;50.054;8.790;2024-01-07T22:23:30;1.20;99.90
38604;DHT22;24924;50.054;8.790;2024-01-07T22:25:56;1.20;99.90
38604;DHT22;24924;50.054;8.790;2024-01-07T22:28:22;1.20;99.90
38604;DHT22;24924;50.054;8.790;2024-01-07T22:30:47;1.20;99.90
38604;DHT22;24924;50.054;8.790;2024-01-07T22:33:13;1.10;99.90
38604;DHT22;24924;50.054;8.790;2024-01-07T22:35:40;1.20;99.90
38604;DHT22;24924;50.054;8.790;2024-01-07T22:38:05;1.20;99.90
38604;DHT22;24924;50.054;8.790;2024-01-07T22:40:31;1.20;99.90
38604;DHT22;24924;50.054;8.790;2024-01-07T22:42:58;1.20;99.90
38604;DHT22;24924;50.054;8.790;2024-01-07T22:45:24;1.20;99.90
38604;DHT22;24924;50.054;8.790;2024-01-07T22:47:54;1.20;99.90
38604;DHT22;24924;50.054;8.790;2024-01-07T22:50:21;1.30;99.90
38604;DHT22;24924;50.054;8.790;2024-01-07T22:52:47;1.20;99.90
38604;DHT22;24924;50.054;8.790;2024-01-07T22:55:13;1.20;99.90
38604;DHT22;24924;50.054;8.790;2024-01-07T22:57:39;1.20;99.90
38604;DHT22;24924;50.054;8.790;2024-01-07T23:00:05;1.20;99.90
38604;DHT22;24924;50.054;8.790;2024-01-07T23:02:33;1.10;99.90
38604;DHT22;24924;50.054;8.790;2024-01-07T23:04:59;1.10;99.90
38604;DHT22;24924;50.054;8.790;2024-01-07T23:07:26;1.20;99.90
38604;DHT22;24924;50.054;8.790;2024-01-07T23:09:52;1.20;99.90
38604;DHT22;24924;50.054;8.790;2024-01-07T23:12:17;1.20;99.90
38604;DHT22;24924;50.054;8.790;2024-01-07T23:14:43;1.10;99.90
38604;DHT22;24924;50.054;8.790;2024-01-07T23:17:09;1.20;99.90
38604;DHT22;24924;50.054;8.790;2024-01-07T23:19:35;1.10;99.90
38604;DHT22;24924;50.054;8.790;2024-01-07T23:22:00;1.10;99.90
38604;DHT22;24924;50.054;8.790;2024-01-07T23:24:26;1.20;99.90
38604;DHT22;24924;50.054;8.790;2024-01-07T23:26:52;1.30;99.90
38604;DHT22;24924;50.054;8.790;2024-01-07T23:29:18;1.20;99.90
38604;DHT22;24924;50.054;8.790;2024-01-07T23:31:43;1.20;99.90
38604;DHT22;24924;50.054;8.790;2024-01-07T23:34:11;1.20;99.90
38604;DHT22;24924;50.054;8.790;2024-01-07T23:36:37;1.20;99.90
38604;DHT22;24924;50.054;8.790;2024-01-07T23:39:03;1.20;99.90
38604;DHT22;24924;50.054;8.790;2024-01-07T23:41:29;1.20;99.90
38604;DHT22;24924;50.054;8.790;2024-01-07T23:43:55;1.20;99.90
38604;DHT22;24924;50.054;8.790;2024-01-07T23:46:21;1.20;99.90
38604;DHT22;24924;50.054;8.790;2024-01-07T23:48:47;1.20;99.90
38604;DHT22;24924;50.054;8.790;2024-01-07T23:51:13;1.10;99.90
38604;DHT22;24924;50.054;8.790;2024-01-07T23:53:39;1.10;99.90
38604;DHT22;24924;50.054;8.790;2024-01-07T23:56:05;1.20;99.90
38604;DHT22;24924;50.054;8.790;2024-01-07T23:58:31;1.10;99.90
